createdAt,value
2024-01-05T00:00:06.499Z,99183.69
2024-01-05T00:00:17.763Z,99183.69
2024-01-05T00:00:29.049Z,99178.50
2024-01-05T00:00:40.412Z,99179.38
2024-01-05T00:00:51.727Z,99178.50
2024-01-05T00:01:03.033Z,99184.56
2024-01-05T00:01:14.302Z,99178.50
2024-01-05T00:01:25.585Z,99183.69
2024-01-05T00:01:36.864Z,99183.69
2024-01-05T00:01:48.090Z,99183.69
2024-01-05T00:01:59.351Z,99181.09
2024-01-05T00:02:12.988Z,99188.03
2024-01-05T00:02:25.564Z,99189.78
2024-01-05T00:02:36.814Z,99188.88
2024-01-05T00:02:48.216Z,99184.59
2024-01-05T00:02:59.518Z,99187.19
2024-01-05T00:03:10.837Z,99188.88
2024-01-05T00:03:22.196Z,99187.19
2024-01-05T00:03:33.602Z,99182.00
2024-01-05T00:03:45.003Z,99182.84
2024-01-05T00:03:56.348Z,99183.69
2024-01-05T00:04:07.792Z,99181.09
2024-01-05T00:04:19.106Z,99188.03
2024-01-05T00:04:30.526Z,99018.22
2024-01-05T00:04:41.864Z,99187.19
2024-01-05T00:04:53.088Z,99183.69
2024-01-05T00:05:04.327Z,99185.44
2024-01-05T00:05:15.862Z,99188.88
2024-01-05T00:05:27.183Z,99188.03
2024-01-05T00:05:38.556Z,99186.28
2024-01-05T00:05:49.940Z,99188.03
2024-01-05T00:06:01.527Z,99188.88
2024-01-05T00:06:12.933Z,99188.88
2024-01-05T00:06:24.417Z,99182.84
2024-01-05T00:06:35.806Z,99188.88
2024-01-05T00:06:47.662Z,99188.03
2024-01-05T00:06:59.149Z,99191.47
2024-01-05T00:07:10.516Z,99188.88
2024-01-05T00:07:21.842Z,99194.06
2024-01-05T00:07:33.071Z,99194.97
2024-01-05T00:07:44.307Z,99192.38
2024-01-05T00:07:55.786Z,99190.63
2024-01-05T00:08:07.381Z,99196.66
2024-01-05T00:08:18.622Z,99189.78
2024-01-05T00:08:29.997Z,99194.06
2024-01-05T00:08:41.245Z,99194.06
2024-01-05T00:08:52.500Z,99191.47
2024-01-05T00:09:03.790Z,99191.47
2024-01-05T00:09:15.134Z,99191.47
2024-01-05T00:09:26.416Z,99187.19
2024-01-05T00:09:37.777Z,99190.59
2024-01-05T00:09:49.226Z,99200.97
2024-01-05T00:10:00.606Z,99194.06
2024-01-05T00:10:11.885Z,99188.88
2024-01-05T00:10:23.115Z,99194.94
2024-01-05T00:10:34.361Z,99198.38
2024-01-05T00:10:45.594Z,99194.94
2024-01-05T00:10:56.837Z,99206.16
2024-01-05T00:11:08.076Z,99192.34
2024-01-05T00:11:19.320Z,99200.97
2024-01-05T00:11:30.553Z,99204.44
2024-01-05T00:11:41.779Z,99197.53
2024-01-05T00:11:53.014Z,99200.13
2024-01-05T00:12:06.543Z,99204.44
2024-01-05T00:12:18.128Z,99208.75
2024-01-05T00:12:29.427Z,99204.44
2024-01-05T00:12:40.741Z,99199.25
2024-01-05T00:12:52.233Z,99209.63
2024-01-05T00:13:03.500Z,99209.63
2024-01-05T00:13:14.729Z,99204.44
2024-01-05T00:13:25.949Z,99209.63
2024-01-05T00:13:37.175Z,99207.91
2024-01-05T00:13:48.406Z,99206.16
2024-01-05T00:13:59.630Z,99211.34
2024-01-05T00:14:10.857Z,99209.63
2024-01-05T00:14:22.110Z,99201.84
2024-01-05T00:14:33.341Z,99207.94
2024-01-05T00:14:44.568Z,99210.50
2024-01-05T00:14:55.816Z,99205.31
2024-01-05T00:15:07.140Z,99205.31
2024-01-05T00:15:18.501Z,99205.31
2024-01-05T00:15:29.875Z,99207.03
2024-01-05T00:15:41.152Z,99205.31
2024-01-05T00:15:52.565Z,99205.31
2024-01-05T00:16:03.825Z,99209.63
2024-01-05T00:16:15.047Z,99206.16
2024-01-05T00:16:26.294Z,99209.63
2024-01-05T00:16:37.545Z,99207.91
2024-01-05T00:16:48.774Z,99208.75
2024-01-05T00:17:00.017Z,99207.94
2024-01-05T00:17:11.243Z,99210.53
2024-01-05T00:17:22.494Z,99210.50
2024-01-05T00:17:33.854Z,99210.53
2024-01-05T00:17:45.133Z,99208.78
2024-01-05T00:17:56.561Z,99207.94
2024-01-05T00:18:08.076Z,99207.06
2024-01-05T00:18:19.560Z,99209.66
2024-01-05T00:18:30.913Z,99207.06
2024-01-05T00:18:42.377Z,99210.53
2024-01-05T00:18:53.859Z,99214.81
2024-01-05T00:19:05.358Z,99213.13
2024-01-05T00:19:16.761Z,99208.78
2024-01-05T00:19:28.233Z,99210.53
2024-01-05T00:19:39.591Z,99213.13
2024-01-05T00:19:50.943Z,99212.25
2024-01-05T00:20:02.290Z,99214.81
2024-01-05T00:20:13.606Z,99213.13
2024-01-05T00:20:24.945Z,99214.81
2024-01-05T00:20:36.220Z,99220.88
2024-01-05T00:20:47.455Z,99216.56
2024-01-05T00:20:58.722Z,99214.81
2024-01-05T00:21:09.984Z,99213.13
2024-01-05T00:21:21.263Z,99214.81
2024-01-05T00:21:32.582Z,99213.97
2024-01-05T00:21:43.907Z,99220.00
2024-01-05T00:21:55.155Z,99214.81
2024-01-05T00:22:06.388Z,99222.59
2024-01-05T00:22:17.612Z,99219.16
2024-01-05T00:22:28.837Z,99222.59
2024-01-05T00:22:40.074Z,99220.00
2024-01-05T00:22:51.323Z,99220.88
2024-01-05T00:23:02.574Z,99220.91
2024-01-05T00:23:13.812Z,99218.31
2024-01-05T00:23:25.040Z,99225.19
2024-01-05T00:23:36.272Z,99220.91
2024-01-05T00:23:47.495Z,99229.53
2024-01-05T00:23:58.778Z,99225.19
2024-01-05T00:24:10.039Z,99233.88
2024-01-05T00:24:21.480Z,99222.59
2024-01-05T00:24:32.835Z,99230.38
2024-01-05T00:24:44.143Z,99220.00
2024-01-05T00:24:55.365Z,99225.19
2024-01-05T00:25:06.602Z,99230.38
2024-01-05T00:25:17.878Z,99223.50
2024-01-05T00:25:29.128Z,99231.25
2024-01-05T00:25:40.354Z,99228.69
2024-01-05T00:25:51.583Z,99225.19
2024-01-05T00:26:02.849Z,99220.88
2024-01-05T00:26:14.096Z,99226.91
2024-01-05T00:26:25.339Z,99231.25
2024-01-05T00:26:36.562Z,99220.00
2024-01-05T00:26:47.793Z,99231.25
2024-01-05T00:26:59.038Z,99225.19
2024-01-05T00:27:10.288Z,99228.69
2024-01-05T00:27:21.553Z,99223.50
2024-01-05T00:27:32.824Z,99231.28
2024-01-05T00:27:44.153Z,99224.34
2024-01-05T00:27:55.390Z,99230.38
2024-01-05T00:28:06.649Z,99235.56
2024-01-05T00:28:17.893Z,99234.72
2024-01-05T00:28:29.111Z,99230.38
2024-01-05T00:28:40.336Z,99222.59
2024-01-05T00:28:51.645Z,99238.16
2024-01-05T00:29:02.919Z,99228.69
2024-01-05T00:29:14.155Z,99228.69
2024-01-05T00:29:25.377Z,99232.97
2024-01-05T00:29:36.633Z,99230.38
2024-01-05T00:29:47.871Z,99232.97
2024-01-05T00:29:59.132Z,99235.56
2024-01-05T00:30:10.478Z,99233.88
2024-01-05T00:30:21.957Z,99225.19
2024-01-05T00:30:33.295Z,99232.97
2024-01-05T00:30:44.653Z,99241.63
2024-01-05T00:30:56.037Z,99235.56
2024-01-05T00:31:07.425Z,99237.28
2024-01-05T00:31:18.719Z,99230.38
2024-01-05T00:31:30.099Z,99238.16
2024-01-05T00:31:41.443Z,99241.63
2024-01-05T00:31:52.767Z,99242.44
2024-01-05T00:32:04.012Z,99237.28
2024-01-05T00:32:18.468Z,99248.47
2024-01-05T00:32:30.197Z,99239.03
2024-01-05T00:32:41.580Z,99241.56
2024-01-05T00:32:53.063Z,99241.56
2024-01-05T00:33:04.598Z,99242.44
2024-01-05T00:33:16.110Z,99236.44
2024-01-05T00:33:27.545Z,99241.63
2024-01-05T00:33:38.946Z,99239.84
2024-01-05T00:33:50.404Z,99236.44
2024-01-05T00:34:01.893Z,99243.31
2024-01-05T00:34:13.294Z,99241.63
2024-01-05T00:34:24.681Z,99239.84
2024-01-05T00:34:36.249Z,99241.63
2024-01-05T00:34:48.017Z,99238.16
2024-01-05T00:34:59.309Z,99235.56
2024-01-05T00:35:10.548Z,99243.31
2024-01-05T00:35:21.784Z,99241.56
2024-01-05T00:35:33.011Z,99241.63
2024-01-05T00:35:44.234Z,99234.69
2024-01-05T00:35:55.506Z,99237.28
2024-01-05T00:36:06.836Z,99238.16
2024-01-05T00:36:18.140Z,99237.28
2024-01-05T00:36:29.489Z,99238.97
2024-01-05T00:36:41.130Z,99240.69
2024-01-05T00:36:52.516Z,99238.97
2024-01-05T00:37:03.775Z,99233.78
2024-01-05T00:37:15.027Z,99236.38
2024-01-05T00:37:26.252Z,99233.78
2024-01-05T00:37:37.478Z,99232.03
2024-01-05T00:37:48.705Z,99240.69
2024-01-05T00:37:59.940Z,99237.22
2024-01-05T00:38:11.181Z,99234.63
2024-01-05T00:38:22.410Z,99228.56
2024-01-05T00:38:33.649Z,99235.50
2024-01-05T00:38:44.893Z,99223.44
2024-01-05T00:38:56.180Z,99238.09
2024-01-05T00:39:07.445Z,99230.31
2024-01-05T00:39:18.817Z,99238.97
2024-01-05T00:39:30.327Z,99239.81
2024-01-05T00:39:41.577Z,99233.78
2024-01-05T00:39:52.859Z,99226.91
2024-01-05T00:40:04.118Z,99233.78
2024-01-05T00:40:15.355Z,99228.59
2024-01-05T00:40:26.578Z,99233.78
2024-01-05T00:40:37.810Z,99226.00
2024-01-05T00:40:49.048Z,99227.78
2024-01-05T00:41:00.333Z,99228.59
2024-01-05T00:41:11.591Z,99228.59
2024-01-05T00:41:22.815Z,99222.59
2024-01-05T00:41:34.047Z,99226.00
2024-01-05T00:41:45.326Z,99224.31
2024-01-05T00:41:56.595Z,99218.22
2024-01-05T00:42:07.929Z,99226.91
2024-01-05T00:42:19.266Z,99229.50
2024-01-05T00:42:30.604Z,99226.00
2024-01-05T00:42:41.879Z,99226.91
2024-01-05T00:42:53.109Z,99221.72
2024-01-05T00:43:04.454Z,99228.59
2024-01-05T00:43:15.679Z,99227.78
2024-01-05T00:43:26.910Z,99223.47
2024-01-05T00:43:38.135Z,99226.06
2024-01-05T00:43:49.360Z,99232.06
2024-01-05T00:44:00.630Z,99222.59
2024-01-05T00:44:11.899Z,99227.78
2024-01-05T00:44:23.133Z,99225.19
2024-01-05T00:44:34.365Z,99226.00
2024-01-05T00:44:45.588Z,99233.78
2024-01-05T00:44:56.851Z,99225.13
2024-01-05T00:45:08.213Z,99224.25
2024-01-05T00:45:19.580Z,99227.72
2024-01-05T00:45:30.861Z,99222.53
2024-01-05T00:45:42.137Z,99225.13
2024-01-05T00:45:53.361Z,99217.34
2024-01-05T00:46:04.588Z,99225.13
2024-01-05T00:46:15.822Z,99220.84
2024-01-05T00:46:27.061Z,99223.44
2024-01-05T00:46:38.309Z,99219.06
2024-01-05T00:46:49.548Z,99223.44
2024-01-05T00:47:00.767Z,99218.22
2024-01-05T00:47:12.002Z,99215.66
2024-01-05T00:47:23.245Z,99213.06
2024-01-05T00:47:34.545Z,99219.06
2024-01-05T00:47:45.815Z,99214.81
2024-01-05T00:47:57.211Z,99218.22
2024-01-05T00:48:08.757Z,99213.88
2024-01-05T00:48:20.194Z,99219.94
2024-01-05T00:48:31.704Z,99219.94
2024-01-05T00:48:43.178Z,99223.44
2024-01-05T00:48:54.578Z,99219.06
2024-01-05T00:49:06.003Z,99214.75
2024-01-05T00:49:17.470Z,99217.34
2024-01-05T00:49:28.780Z,99215.66
2024-01-05T00:49:40.131Z,99222.53
2024-01-05T00:49:51.577Z,99224.25
2024-01-05T00:50:02.854Z,99219.06
2024-01-05T00:50:14.104Z,99226.84
2024-01-05T00:50:25.345Z,99217.34
2024-01-05T00:50:36.584Z,99220.78
2024-01-05T00:50:47.822Z,99219.94
2024-01-05T00:50:59.104Z,99225.97
2024-01-05T00:51:10.392Z,99219.94
2024-01-05T00:51:21.685Z,99225.13
2024-01-05T00:51:32.960Z,99222.53
2024-01-05T00:51:44.211Z,99227.72
2024-01-05T00:51:55.458Z,99224.25
2024-01-05T00:52:06.681Z,99222.50
2024-01-05T00:52:17.910Z,99224.25
2024-01-05T00:52:29.151Z,99224.25
2024-01-05T00:52:40.397Z,99227.72
2024-01-05T00:52:51.623Z,99225.97
2024-01-05T00:53:02.977Z,99219.94
2024-01-05T00:53:14.202Z,99219.06
2024-01-05T00:53:25.418Z,99220.78
2024-01-05T00:53:36.640Z,99226.84
2024-01-05T00:53:47.878Z,99232.88
2024-01-05T00:53:59.142Z,99219.94
2024-01-05T00:54:10.492Z,99225.97
2024-01-05T00:54:21.799Z,99225.13
2024-01-05T00:54:33.101Z,99219.94
2024-01-05T00:54:44.393Z,99223.38
2024-01-05T00:54:55.625Z,99220.78
2024-01-05T00:55:06.905Z,99215.59
2024-01-05T00:55:18.127Z,99225.97
2024-01-05T00:55:29.347Z,99237.22
2024-01-05T00:55:40.580Z,99236.34
2024-01-05T00:55:51.805Z,99226.84
2024-01-05T00:56:03.042Z,99230.31
2024-01-05T00:56:14.307Z,99235.50
2024-01-05T00:56:25.534Z,99224.25
2024-01-05T00:56:36.774Z,99226.84
2024-01-05T00:56:48.007Z,99228.56
2024-01-05T00:56:59.269Z,99235.50
2024-01-05T00:57:11.826Z,99235.50
2024-01-05T00:57:23.242Z,99238.09
2024-01-05T00:57:34.601Z,99236.38
2024-01-05T00:57:45.951Z,99238.09
2024-01-05T00:57:57.277Z,99226.84
2024-01-05T00:58:08.610Z,99230.31
2024-01-05T00:58:19.843Z,99225.13
2024-01-05T00:58:31.069Z,99226.84
2024-01-05T00:58:42.300Z,99230.31
2024-01-05T00:58:53.555Z,99231.16
2024-01-05T00:59:04.810Z,99227.72
2024-01-05T00:59:16.045Z,99230.31
2024-01-05T00:59:27.309Z,99233.78
2024-01-05T00:59:38.553Z,99236.34
2024-01-05T00:59:49.809Z,99235.50
2024-01-05T01:00:01.160Z,99238.09
2024-01-05T01:00:12.491Z,99227.72
2024-01-05T01:00:23.772Z,99230.31
2024-01-05T01:00:35.143Z,99235.50
2024-01-05T01:00:46.601Z,99233.78
2024-01-05T01:00:57.988Z,99231.16
2024-01-05T01:01:09.319Z,99236.38
2024-01-05T01:01:20.621Z,99230.31
2024-01-05T01:01:31.910Z,99235.50
2024-01-05T01:01:43.153Z,99230.31
2024-01-05T01:01:54.407Z,99229.44
2024-01-05T01:02:05.689Z,99228.59
2024-01-05T01:02:16.924Z,99222.53
2024-01-05T01:02:28.169Z,99225.13
2024-01-05T01:02:39.400Z,99225.13
2024-01-05T01:02:50.705Z,99225.13
2024-01-05T01:03:02.108Z,99223.44
2024-01-05T01:03:13.459Z,99235.50
2024-01-05T01:03:24.865Z,99226.84
2024-01-05T01:03:36.301Z,99235.50
2024-01-05T01:03:47.702Z,99221.66
2024-01-05T01:03:59.114Z,99225.97
2024-01-05T01:04:10.610Z,99224.25
2024-01-05T01:04:22.196Z,99230.31
2024-01-05T01:04:33.762Z,99225.13
2024-01-05T01:04:45.238Z,99225.13
2024-01-05T01:04:56.611Z,99223.44
2024-01-05T01:05:07.926Z,99224.25
2024-01-05T01:05:19.255Z,99228.59
2024-01-05T01:05:30.577Z,99223.44
2024-01-05T01:05:41.850Z,99223.44
2024-01-05T01:05:53.116Z,99226.00
2024-01-05T01:06:04.414Z,99232.94
2024-01-05T01:06:15.754Z,99227.78
2024-01-05T01:06:27.120Z,99220.84
2024-01-05T01:06:38.499Z,99221.72
2024-01-05T01:06:49.904Z,99233.78
2024-01-05T01:07:01.183Z,99223.44
2024-01-05T01:07:12.408Z,99233.78
2024-01-05T01:07:23.630Z,99222.59
2024-01-05T01:07:34.884Z,99224.31
2024-01-05T01:07:46.114Z,99227.78
2024-01-05T01:07:57.376Z,99223.44
2024-01-05T01:08:08.633Z,99228.56
2024-01-05T01:08:19.862Z,99226.84
2024-01-05T01:08:31.091Z,99232.06
2024-01-05T01:08:42.330Z,99228.59
2024-01-05T01:08:53.581Z,99223.44
2024-01-05T01:09:04.834Z,99232.94
2024-01-05T01:09:16.127Z,99220.84
2024-01-05T01:09:27.484Z,99226.00
2024-01-05T01:09:38.762Z,99227.72
2024-01-05T01:09:50.028Z,99223.44
2024-01-05T01:10:01.305Z,99220.78
2024-01-05T01:10:12.533Z,99222.53
2024-01-05T01:10:23.749Z,99220.78
2024-01-05T01:10:34.983Z,99221.66
2024-01-05T01:10:46.280Z,99225.97
2024-01-05T01:10:57.517Z,99217.34
2024-01-05T01:11:08.757Z,99217.34
2024-01-05T01:11:19.977Z,99219.94
2024-01-05T01:11:31.206Z,99219.94
2024-01-05T01:11:42.428Z,99219.94
2024-01-05T01:11:53.698Z,99226.84
2024-01-05T01:12:05.000Z,99227.72
2024-01-05T01:12:16.325Z,99220.84
2024-01-05T01:12:27.671Z,99222.53
2024-01-05T01:12:38.951Z,99225.97
2024-01-05T01:12:50.197Z,99226.84
2024-01-05T01:13:01.418Z,99226.84
2024-01-05T01:13:12.633Z,99221.66
2024-01-05T01:13:23.861Z,99221.66
2024-01-05T01:13:35.082Z,99219.94
2024-01-05T01:13:46.306Z,99215.59
2024-01-05T01:13:57.595Z,99225.97
2024-01-05T01:14:08.849Z,99221.66
2024-01-05T01:14:20.099Z,99221.66
2024-01-05T01:14:31.341Z,99226.84
2024-01-05T01:14:42.602Z,99225.97
2024-01-05T01:14:53.911Z,99230.31
2024-01-05T01:15:05.228Z,99227.72
2024-01-05T01:15:16.661Z,99225.13
2024-01-05T01:15:27.996Z,99225.13
2024-01-05T01:15:39.286Z,99227.72
2024-01-05T01:15:50.542Z,99220.84
2024-01-05T01:16:01.773Z,99228.56
2024-01-05T01:16:13.036Z,99223.44
2024-01-05T01:16:24.265Z,99219.94
2024-01-05T01:16:35.595Z,99224.25
2024-01-05T01:16:46.830Z,99233.75
2024-01-05T01:16:58.058Z,99223.44
2024-01-05T01:17:09.288Z,99220.00
2024-01-05T01:17:20.584Z,99223.44
2024-01-05T01:17:31.982Z,99222.53
2024-01-05T01:17:43.384Z,99228.59
2024-01-05T01:17:54.761Z,99226.00
2024-01-05T01:18:06.212Z,99224.25
2024-01-05T01:18:17.774Z,99223.44
2024-01-05T01:18:29.266Z,99223.47
2024-01-05T01:18:40.841Z,99226.91
2024-01-05T01:18:52.364Z,99224.31
2024-01-05T01:19:03.904Z,99219.13
2024-01-05T01:19:15.540Z,99225.19
2024-01-05T01:19:27.022Z,99230.38
2024-01-05T01:19:38.402Z,99230.38
2024-01-05T01:19:49.772Z,99230.38
2024-01-05T01:20:01.046Z,99230.38
2024-01-05T01:20:12.276Z,99225.19
2024-01-05T01:20:23.510Z,99229.53
2024-01-05T01:20:34.747Z,99225.19
2024-01-05T01:20:45.981Z,99237.28
2024-01-05T01:20:57.229Z,99229.53
2024-01-05T01:21:08.615Z,99239.03
2024-01-05T01:21:19.942Z,99240.75
2024-01-05T01:21:31.303Z,99240.75
2024-01-05T01:21:42.690Z,99234.69
2024-01-05T01:21:53.959Z,99232.97
2024-01-05T01:22:05.187Z,99242.44
2024-01-05T01:22:16.411Z,99237.28
2024-01-05T01:22:27.634Z,99237.28
2024-01-05T01:22:38.876Z,99238.16
2024-01-05T01:22:50.101Z,99232.06
2024-01-05T01:23:01.340Z,99236.38
2024-01-05T01:23:12.569Z,99238.97
2024-01-05T01:23:23.802Z,99236.38
2024-01-05T01:23:35.030Z,99241.56
2024-01-05T01:23:46.248Z,99238.16
2024-01-05T01:23:57.551Z,99235.53
2024-01-05T01:24:08.822Z,99237.28
2024-01-05T01:24:20.110Z,99235.53
2024-01-05T01:24:31.475Z,99242.44
2024-01-05T01:24:42.737Z,99242.44
2024-01-05T01:24:53.968Z,99242.44
2024-01-05T01:25:05.197Z,99248.50
2024-01-05T01:25:16.427Z,99243.31
2024-01-05T01:25:27.673Z,99248.50
2024-01-05T01:25:38.913Z,99246.75
2024-01-05T01:25:50.172Z,99244.16
2024-01-05T01:26:01.425Z,99248.50
2024-01-05T01:26:12.654Z,99239.81
2024-01-05T01:26:23.870Z,99247.63
2024-01-05T01:26:35.099Z,99245.88
2024-01-05T01:26:46.333Z,99251.06
2024-01-05T01:26:57.597Z,99251.06
2024-01-05T01:27:08.882Z,99251.06
2024-01-05T01:27:20.158Z,99251.06
2024-01-05T01:27:31.524Z,99251.06
2024-01-05T01:27:42.873Z,99251.91
2024-01-05T01:27:54.113Z,99245.88
2024-01-05T01:28:05.360Z,99256.25
2024-01-05T01:28:16.592Z,99247.59
2024-01-05T01:28:27.824Z,99254.50
2024-01-05T01:28:39.071Z,99257.97
2024-01-05T01:28:50.298Z,99257.09
2024-01-05T01:29:01.520Z,99255.38
2024-01-05T01:29:12.757Z,99252.78
2024-01-05T01:29:23.994Z,99258.84
2024-01-05T01:29:35.235Z,99248.47
2024-01-05T01:29:46.487Z,99251.91
2024-01-05T01:29:57.761Z,99247.59
2024-01-05T01:30:09.094Z,99257.97
2024-01-05T01:30:20.479Z,99257.09
2024-01-05T01:30:31.825Z,99252.78
2024-01-05T01:30:43.171Z,99252.78
2024-01-05T01:30:54.603Z,99252.78
2024-01-05T01:31:06.063Z,99252.78
2024-01-05T01:31:17.355Z,99256.25
2024-01-05T01:31:28.654Z,99257.97
2024-01-05T01:31:39.965Z,99260.56
2024-01-05T01:31:51.227Z,99257.09
2024-01-05T01:32:02.481Z,99251.06
2024-01-05T01:32:13.707Z,99256.25
2024-01-05T01:32:24.960Z,99257.97
2024-01-05T01:32:36.225Z,99257.09
2024-01-05T01:32:47.526Z,99255.38
2024-01-05T01:32:58.894Z,99262.28
2024-01-05T01:33:10.267Z,99262.25
2024-01-05T01:33:21.672Z,99259.69
2024-01-05T01:33:33.112Z,99258.81
2024-01-05T01:33:44.700Z,99261.44
2024-01-05T01:33:56.158Z,99251.06
2024-01-05T01:34:07.758Z,99255.38
2024-01-05T01:34:19.145Z,99257.09
2024-01-05T01:34:30.535Z,99256.25
2024-01-05T01:34:41.857Z,99256.25
2024-01-05T01:34:53.275Z,99258.84
2024-01-05T01:35:04.567Z,99261.44
2024-01-05T01:35:15.810Z,99261.44
2024-01-05T01:35:27.033Z,99261.44
2024-01-05T01:35:38.310Z,99262.31
2024-01-05T01:35:49.569Z,99259.72
2024-01-05T01:36:00.905Z,99259.72
2024-01-05T01:36:12.253Z,99259.72
2024-01-05T01:36:23.498Z,99257.13
2024-01-05T01:36:34.810Z,99255.41
2024-01-05T01:36:46.500Z,99253.69
2024-01-05T01:36:58.048Z,99261.44
2024-01-05T01:37:09.289Z,99263.16
2024-01-05T01:37:20.517Z,99255.38
2024-01-05T01:37:31.752Z,99261.44
2024-01-05T01:37:42.987Z,99259.72
2024-01-05T01:37:54.254Z,99269.25
2024-01-05T01:38:05.494Z,99254.53
2024-01-05T01:38:16.743Z,99258.00
2024-01-05T01:38:27.977Z,99262.31
2024-01-05T01:38:39.195Z,99259.72
2024-01-05T01:38:50.510Z,99264.03
2024-01-05T01:39:01.833Z,99258.84
2024-01-05T01:39:13.086Z,99256.25
2024-01-05T01:39:24.364Z,99259.72
2024-01-05T01:39:35.759Z,99261.44
2024-01-05T01:39:47.079Z,99257.13
2024-01-05T01:39:58.303Z,99260.56
2024-01-05T01:40:09.529Z,99260.56
2024-01-05T01:40:20.764Z,99251.09
2024-01-05T01:40:32.001Z,99259.72
2024-01-05T01:40:43.226Z,99257.13
2024-01-05T01:40:54.453Z,99256.28
2024-01-05T01:41:05.699Z,99259.72
2024-01-05T01:41:16.939Z,99259.72
2024-01-05T01:41:28.160Z,99258.84
2024-01-05T01:41:39.402Z,99251.09
2024-01-05T01:41:50.742Z,99258.84
2024-01-05T01:42:02.098Z,99253.66
2024-01-05T01:42:13.594Z,99256.25
2024-01-05T01:42:24.982Z,99251.91
2024-01-05T01:42:36.311Z,99254.53
2024-01-05T01:42:47.724Z,99257.97
2024-01-05T01:42:59.141Z,99255.38
2024-01-05T01:43:10.513Z,99256.25
2024-01-05T01:43:21.798Z,99255.38
2024-01-05T01:43:33.064Z,99256.25
2024-01-05T01:43:44.320Z,99258.84
2024-01-05T01:43:55.544Z,99255.38
2024-01-05T01:44:06.786Z,99251.06
2024-01-05T01:44:18.026Z,99258.84
2024-01-05T01:44:29.271Z,99256.25
2024-01-05T01:44:40.494Z,99255.38
2024-01-05T01:44:51.752Z,99257.97
2024-01-05T01:45:03.137Z,99253.66
2024-01-05T01:45:14.542Z,99256.25
2024-01-05T01:45:25.851Z,99256.25
2024-01-05T01:45:37.152Z,99256.25
2024-01-05T01:45:48.440Z,99256.25
2024-01-05T01:45:59.662Z,99257.97
2024-01-05T01:46:10.919Z,99259.72
2024-01-05T01:46:22.154Z,99261.44
2024-01-05T01:46:33.438Z,99259.72
2024-01-05T01:46:44.950Z,99249.34
2024-01-05T01:46:56.466Z,99261.44
2024-01-05T01:47:07.702Z,99257.97
2024-01-05T01:47:18.960Z,99265.75
2024-01-05T01:47:30.239Z,99257.13
2024-01-05T01:47:41.595Z,99259.72
2024-01-05T01:47:53.020Z,99266.66
2024-01-05T01:48:04.409Z,99257.13
2024-01-05T01:48:15.845Z,99266.63
2024-01-05T01:48:27.301Z,99264.03
2024-01-05T01:48:38.888Z,99264.03
2024-01-05T01:48:50.367Z,99261.44
2024-01-05T01:49:02.030Z,99263.16
2024-01-05T01:49:13.499Z,99259.69
2024-01-05T01:49:24.969Z,99266.63
2024-01-05T01:49:36.439Z,99260.56
2024-01-05T01:49:47.915Z,99262.31
2024-01-05T01:49:59.382Z,99266.63
2024-01-05T01:50:10.757Z,99262.28
2024-01-05T01:50:21.981Z,99257.97
2024-01-05T01:50:33.222Z,99259.72
2024-01-05T01:50:44.446Z,99257.97
2024-01-05T01:50:55.711Z,99257.13
2024-01-05T01:51:06.999Z,99257.97
2024-01-05T01:51:18.347Z,99257.13
2024-01-05T01:51:29.778Z,99256.25
2024-01-05T01:51:41.077Z,99260.56
2024-01-05T01:51:52.310Z,99260.56
2024-01-05T01:52:03.543Z,99260.56
2024-01-05T01:52:14.807Z,99253.66
2024-01-05T01:52:26.054Z,99257.97
2024-01-05T01:52:37.290Z,99258.88
2024-01-05T01:52:48.524Z,99258.88
2024-01-05T01:52:59.754Z,99258.88
2024-01-05T01:53:10.989Z,99260.56
2024-01-05T01:53:22.213Z,99262.31
2024-01-05T01:53:33.458Z,99257.13
2024-01-05T01:53:44.701Z,99265.75
2024-01-05T01:53:55.991Z,99259.72
2024-01-05T01:54:07.367Z,99255.41
2024-01-05T01:54:18.681Z,99258.88
2024-01-05T01:54:31.927Z,99258.88
2024-01-05T01:54:44.497Z,99259.72
2024-01-05T01:54:55.777Z,99255.41
2024-01-05T01:55:07.021Z,99249.38
2024-01-05T01:55:18.302Z,99258.00
2024-01-05T01:55:29.533Z,99252.81
2024-01-05T01:55:40.775Z,99253.69
2024-01-05T01:55:52.051Z,99250.28
2024-01-05T01:56:03.273Z,99258.06
2024-01-05T01:56:14.757Z,99257.16
2024-01-05T01:56:26.132Z,99258.06
2024-01-05T01:56:37.364Z,99259.81
2024-01-05T01:56:48.607Z,99258.09
2024-01-05T01:56:59.860Z,99257.22
2024-01-05T01:57:11.169Z,99258.09
2024-01-05T01:57:22.548Z,99262.41
2024-01-05T01:57:33.852Z,99261.53
2024-01-05T01:57:45.103Z,99262.41
2024-01-05T01:57:56.332Z,99259.81
2024-01-05T01:58:07.555Z,99260.69
2024-01-05T01:58:18.797Z,99258.94
2024-01-05T01:58:30.033Z,99258.09
2024-01-05T01:58:41.266Z,99259.81
2024-01-05T01:58:52.522Z,99260.69
2024-01-05T01:59:03.778Z,99256.38
2024-01-05T01:59:15.029Z,99260.69
2024-01-05T01:59:26.281Z,99260.69
2024-01-05T01:59:37.504Z,99257.22
2024-01-05T01:59:48.746Z,99257.22
2024-01-05T02:00:00.045Z,99258.09
2024-01-05T02:00:11.321Z,99258.09
2024-01-05T02:00:22.611Z,99265.88
2024-01-05T02:00:33.950Z,99253.78
2024-01-05T02:00:45.362Z,99256.38
2024-01-05T02:00:56.681Z,99257.22
2024-01-05T02:01:07.981Z,99258.97
2024-01-05T02:01:19.300Z,99256.38
2024-01-05T02:01:30.617Z,99258.97
2024-01-05T02:01:41.860Z,99254.66
2024-01-05T02:01:53.095Z,99258.09
2024-01-05T02:02:04.335Z,99266.75
2024-01-05T02:02:15.583Z,99258.09
2024-01-05T02:02:26.810Z,99260.69
2024-01-05T02:02:38.034Z,99258.09
2024-01-05T02:02:49.382Z,99256.38
2024-01-05T02:03:00.715Z,99258.97
2024-01-05T02:03:12.091Z,99259.84
2024-01-05T02:03:23.471Z,99254.66
2024-01-05T02:03:34.827Z,99253.81
2024-01-05T02:03:46.224Z,99254.63
2024-01-05T02:03:57.624Z,99250.31
2024-01-05T02:04:09.022Z,99255.50
2024-01-05T02:04:20.561Z,99252.03
2024-01-05T02:04:32.053Z,99252.91
2024-01-05T02:04:43.452Z,99250.31
2024-01-05T02:04:54.795Z,99256.38
2024-01-05T02:05:06.130Z,99254.66
2024-01-05T02:05:17.450Z,99261.56
2024-01-05T02:05:28.732Z,99253.78
2024-01-05T02:05:39.954Z,99244.28
2024-01-05T02:05:51.213Z,99249.47
2024-01-05T02:06:02.559Z,99255.50
2024-01-05T02:06:13.827Z,99251.19
2024-01-05T02:06:25.115Z,99251.19
2024-01-05T02:06:36.404Z,99244.28
2024-01-05T02:06:47.662Z,99256.38
2024-01-05T02:06:58.962Z,99250.31
2024-01-05T02:07:10.209Z,99247.72
2024-01-05T02:07:21.446Z,99252.91
2024-01-05T02:07:32.670Z,99250.34
2024-01-05T02:07:43.895Z,99254.66
2024-01-05T02:07:55.115Z,99252.91
2024-01-05T02:08:06.336Z,99250.31
2024-01-05T02:08:17.575Z,99254.66
2024-01-05T02:08:28.823Z,99249.47
2024-01-05T02:08:40.068Z,99248.59
2024-01-05T02:08:51.329Z,99248.63
2024-01-05T02:09:02.675Z,99252.06
2024-01-05T02:09:13.980Z,99246.88
2024-01-05T02:09:25.267Z,99246.00
2024-01-05T02:09:36.583Z,99249.47
2024-01-05T02:09:47.839Z,99252.06
2024-01-05T02:09:59.059Z,99254.66
2024-01-05T02:10:10.281Z,99245.16
2024-01-05T02:10:21.514Z,99248.63
2024-01-05T02:10:32.740Z,99245.13
2024-01-05T02:10:43.966Z,99249.47
2024-01-05T02:10:55.206Z,99247.72
2024-01-05T02:11:06.427Z,99244.28
2024-01-05T02:11:17.654Z,99244.28
2024-01-05T02:11:28.886Z,99245.13
2024-01-05T02:11:40.106Z,99251.19
2024-01-05T02:11:51.434Z,99248.63
2024-01-05T02:12:02.823Z,99254.66
2024-01-05T02:12:14.118Z,99250.31
2024-01-05T02:12:25.407Z,99247.72
2024-01-05T02:12:36.679Z,99250.31
2024-01-05T02:12:47.917Z,99248.59
2024-01-05T02:12:59.161Z,99249.47